Time;durP1;ratioP1;P1;durP2;ratioP2;P2;SDS_P1;SDS_P2;PMS_P1;PMS_P2;Temp;Humidity;BMP_temperature;BMP_pressure;BME280_temperature;BME280_humidity;BME280_pressure;Samples;Min_cycle;Max_cycle;Signal;HPM_P1;HPM_P2
2023/07/19 00:01:19;;;;;;;7.25;5.03;;;16.90;99.90;;;;;;5053261;28;20086;-75
2023/07/19 00:03:45;;;;;;;7.32;4.90;;;16.90;99.90;;;;;;5051538;28;20041;-75
2023/07/19 00:06:10;;;;;;;7.28;5.63;;;16.90;99.90;;;;;;5051092;28;20041;-75
2023/07/19 00:08:36;;;;;;;8.40;5.65;;;16.90;99.90;;;;;;5052305;28;20446;-76
2023/07/19 00:11:02;;;;;;;8.38;6.00;;;16.90;99.90;;;;;;5052673;28;20064;-75
2023/07/19 00:13:28;;;;;;;8.38;6.03;;;16.90;99.90;;;;;;5052776;28;20573;-75
2023/07/19 00:15:53;;;;;;;9.65;6.15;;;16.90;99.90;;;;;;5051530;28;20069;-74
2023/07/19 00:18:19;;;;;;;9.38;5.75;;;16.90;99.90;;;;;;5052057;28;20049;-75
2023/07/19 00:20:45;;;;;;;7.30;5.80;;;16.80;99.90;;;;;;5051926;28;20052;-75
2023/07/19 00:23:11;;;;;;;8.10;6.05;;;16.80;99.90;;;;;;5052401;28;20535;-75
2023/07/19 00:25:37;;;;;;;8.90;5.95;;;16.80;99.90;;;;;;5052574;28;20503;-75
2023/07/19 00:28:02;;;;;;;8.07;5.22;;;16.80;99.90;;;;;;5050900;28;20041;-76
2023/07/19 00:30:28;;;;;;;7.40;5.15;;;16.80;99.90;;;;;;5053585;28;20094;-76
2023/07/19 00:32:56;;;;;;;9.65;6.25;;;16.80;99.90;;;;;;5052310;28;20041;-75
2023/07/19 00:35:22;;;;;;;9.32;6.00;;;16.80;99.90;;;;;;5051333;28;20484;-75
2023/07/19 00:37:48;;;;;;;8.20;6.25;;;16.80;99.90;;;;;;5052703;28;20452;-76
2023/07/19 00:40:14;;;;;;;8.55;6.00;;;16.90;99.90;;;;;;5052693;28;20128;-75
2023/07/19 00:42:40;;;;;;;12.93;6.43;;;16.80;99.90;;;;;;5051070;28;20452;-75
2023/07/19 00:45:06;;;;;;;12.80;6.88;;;16.90;99.90;;;;;;5053765;28;20488;-75
2023/07/19 00:47:33;;;;;;;8.25;6.22;;;16.80;99.90;;;;;;5051951;28;20502;-75
2023/07/19 00:49:59;;;;;;;8.38;6.38;;;16.80;99.90;;;;;;5053118;28;20059;-75
2023/07/19 00:52:25;;;;;;;8.45;6.30;;;16.70;99.90;;;;;;5051586;28;20040;-75
2023/07/19 00:54:51;;;;;;;10.32;6.35;;;16.70;99.90;;;;;;5051661;28;20056;-75
2023/07/19 00:57:18;;;;;;;8.20;6.45;;;16.70;99.90;;;;;;5052002;28;20041;-75
2023/07/19 00:59:44;;;;;;;7.47;6.32;;;16.70;99.90;;;;;;5051635;28;20041;-75
2023/07/19 01:02:10;;;;;;;9.05;6.68;;;16.70;99.90;;;;;;5052537;28;20102;-75
2023/07/19 01:04:36;;;;;;;8.95;6.90;;;16.60;99.90;;;;;;5052817;28;20127;-75
2023/07/19 01:07:03;;;;;;;11.02;7.05;;;16.60;99.90;;;;;;5052552;28;20137;-75
2023/07/19 01:09:30;;;;;;;8.45;6.90;;;16.60;99.90;;;;;;5050539;28;20041;-75
2023/07/19 01:11:56;;;;;;;9.30;6.85;;;16.60;99.90;;;;;;5051075;28;20493;-75
2023/07/19 01:14:21;;;;;;;9.82;6.20;;;16.60;99.90;;;;;;5052170;28;20083;-75
2023/07/19 01:16:47;;;;;;;8.38;6.57;;;16.60;99.90;;;;;;5051225;28;20140;-75
2023/07/19 01:19:15;;;;;;;9.95;7.07;;;16.60;99.90;;;;;;5053982;28;20073;-75
2023/07/19 01:21:41;;;;;;;8.45;6.38;;;16.60;99.90;;;;;;5054782;28;20072;-75
2023/07/19 01:24:07;;;;;;;8.88;6.60;;;16.70;99.90;;;;;;5055683;28;20072;-75
2023/07/19 01:26:33;;;;;;;7.97;6.43;;;16.60;99.90;;;;;;5056588;28;20041;-76
2023/07/19 01:28:59;;;;;;;7.80;6.25;;;16.60;99.90;;;;;;5053947;28;20080;-75
2023/07/19 01:31:25;;;;;;;10.13;6.85;;;16.60;99.90;;;;;;5054066;28;20044;-76
2023/07/19 01:33:51;;;;;;;8.63;6.25;;;16.50;99.90;;;;;;5055818;28;20493;-75
2023/07/19 01:36:16;;;;;;;10.73;6.80;;;16.50;99.90;;;;;;5055456;28;20041;-76
2023/07/19 01:38:42;;;;;;;8.57;6.10;;;16.50;99.90;;;;;;5053318;28;20127;-75
2023/07/19 01:41:08;;;;;;;9.43;6.35;;;16.50;99.90;;;;;;5055744;28;20097;-75
2023/07/19 01:43:34;;;;;;;9.55;7.03;;;16.40;99.90;;;;;;5054170;28;20067;-75
2023/07/19 01:46:00;;;;;;;10.48;6.35;;;16.40;99.90;;;;;;5055963;28;20041;-75
2023/07/19 01:48:26;;;;;;;9.40;6.88;;;16.40;99.90;;;;;;5055831;28;20044;-75
2023/07/19 01:50:51;;;;;;;9.02;7.13;;;16.40;99.90;;;;;;5054819;28;20707;-75
2023/07/19 01:53:17;;;;;;;8.57;6.65;;;16.40;99.90;;;;;;5053589;28;20041;-75
2023/07/19 01:55:43;;;;;;;9.00;6.80;;;16.30;99.90;;;;;;5054479;28;20049;-75
2023/07/19 01:58:09;;;;;;;9.10;7.03;;;16.30;99.90;;;;;;5054118;28;20051;-75
2023/07/19 02:00:36;;;;;;;8.07;6.30;;;16.30;99.90;;;;;;5054870;28;20431;-75
2023/07/19 02:03:01;;;;;;;8.80;6.38;;;16.30;99.90;;;;;;5054192;28;20073;-75
2023/07/19 02:05:27;;;;;;;10.05;6.80;;;16.30;99.90;;;;;;5054766;28;20084;-75
2023/07/19 02:07:53;;;;;;;8.75;6.93;;;16.30;99.90;;;;;;5053871;28;20037;-75
2023/07/19 02:10:19;;;;;;;9.07;6.88;;;15.40;99.90;;;;;;5034462;28;20053;-75
2023/07/19 02:12:45;;;;;;;11.15;7.07;;;16.30;99.90;;;;;;5034207;28;20071;-76
2023/07/19 02:15:10;;;;;;;10.40;6.97;;;16.30;99.90;;;;;;5045926;28;20060;-76
2023/07/19 02:17:36;;;;;;;8.35;6.22;;;16.30;99.90;;;;;;5055081;28;20041;-75
2023/07/19 02:20:03;;;;;;;9.00;6.65;;;16.20;99.90;;;;;;5053326;28;20041;-75
2023/07/19 02:22:29;;;;;;;9.65;7.10;;;16.20;99.90;;;;;;5054242;28;20053;-75
2023/07/19 02:24:55;;;;;;;9.02;6.88;;;16.30;99.90;;;;;;5053301;28;20049;-75
2023/07/19 02:27:21;;;;;;;8.77;6.68;;;16.20;99.90;;;;;;5053444;28;20202;-75
2023/07/19 02:29:47;;;;;;;8.63;6.80;;;16.20;99.90;;;;;;5052269;28;20080;-75
2023/07/19 02:32:13;;;;;;;11.20;6.88;;;16.20;99.90;;;;;;5052888;28;20124;-75
2023/07/19 02:34:38;;;;;;;9.57;6.75;;;16.20;99.90;;;;;;5052767;28;20140;-75
2023/07/19 02:37:04;;;;;;;9.90;7.13;;;16.20;99.90;;;;;;5054335;28;20048;-76
2023/07/19 02:39:30;;;;;;;12.18;7.70;;;16.20;99.90;;;;;;5054227;28;20052;-76
2023/07/19 02:41:57;;;;;;;8.98;7.05;;;16.20;99.90;;;;;;5052776;28;20399;-76
2023/07/19 02:44:23;;;;;;;8.15;6.80;;;16.10;99.90;;;;;;5055050;28;20063;-75
2023/07/19 02:46:49;;;;;;;11.75;7.68;;;16.10;99.90;;;;;;5054887;28;20480;-76
2023/07/19 02:49:14;;;;;;;8.93;7.40;;;16.10;99.90;;;;;;5053163;28;20059;-75
2023/07/19 02:51:40;;;;;;;11.55;7.43;;;16.10;99.90;;;;;;5052825;28;20041;-75
2023/07/19 02:54:06;;;;;;;9.52;7.40;;;16.10;99.90;;;;;;5053930;28;20044;-75
2023/07/19 02:56:31;;;;;;;10.13;7.50;;;16.00;99.90;;;;;;5052455;28;20107;-75
2023/07/19 02:59:02;;;;;;;10.50;7.68;;;16.00;99.90;;;;;;5053748;28;20051;-75
2023/07/19 03:01:27;;;;;;;10.27;7.35;;;16.00;99.90;;;;;;5052165;28;20044;-75
2023/07/19 03:03:53;;;;;;;9.30;7.60;;;16.00;99.90;;;;;;5053531;28;20045;-75
2023/07/19 03:06:19;;;;;;;10.68;8.05;;;15.90;99.90;;;;;;5053527;28;20048;-75
2023/07/19 03:08:45;;;;;;;10.50;7.88;;;15.90;99.90;;;;;;5052277;28;20052;-75
2023/07/19 03:11:11;;;;;;;8.98;7.10;;;15.90;99.90;;;;;;5053329;28;20048;-75
2023/07/19 03:13:37;;;;;;;9.93;7.32;;;15.80;99.90;;;;;;5054924;28;20052;-75
2023/07/19 03:16:04;;;;;;;11.35;7.70;;;15.90;99.90;;;;;;5051566;28;20052;-75
2023/07/19 03:18:30;;;;;;;12.43;7.57;;;15.90;99.90;;;;;;5053828;28;20053;-75
2023/07/19 03:20:57;;;;;;;10.15;7.30;;;15.80;99.90;;;;;;5052495;28;20099;-75
2023/07/19 03:23:23;;;;;;;10.13;7.43;;;15.90;99.90;;;;;;5052416;28;20527;-75
2023/07/19 03:25:48;;;;;;;12.30;8.18;;;15.80;99.90;;;;;;5052634;28;20045;-75
2023/07/19 03:28:14;;;;;;;12.63;7.90;;;15.90;99.90;;;;;;5054128;28;20039;-75
2023/07/19 03:30:40;;;;;;;11.50;7.30;;;15.80;99.90;;;;;;5051390;28;20071;-75
2023/07/19 03:33:08;;;;;;;13.68;7.57;;;15.80;99.90;;;;;;5052686;28;20123;-75
2023/07/19 03:35:34;;;;;;;11.65;6.97;;;15.80;99.90;;;;;;5052560;28;20068;-75
2023/07/19 03:37:59;;;;;;;10.00;7.10;;;15.90;99.90;;;;;;5051461;28;20526;-75
2023/07/19 03:40:25;;;;;;;10.35;7.25;;;15.80;99.90;;;;;;5053044;28;20041;-75
2023/07/19 03:42:51;;;;;;;10.98;7.00;;;15.80;99.90;;;;;;5054021;28;20107;-75
2023/07/19 03:45:17;;;;;;;10.50;7.05;;;15.80;99.90;;;;;;5052501;28;20045;-75
2023/07/19 03:47:43;;;;;;;10.15;7.10;;;15.90;99.90;;;;;;5052889;28;20041;-75
2023/07/19 03:50:09;;;;;;;9.18;6.90;;;15.90;99.90;;;;;;5054012;28;20056;-75
2023/07/19 03:52:34;;;;;;;9.70;6.60;;;15.90;99.90;;;;;;5050441;28;20057;-75
2023/07/19 03:55:04;;;;;;;11.18;7.57;;;15.90;99.90;;;;;;5053981;28;20174;-75
2023/07/19 03:57:29;;;;;;;11.20;7.13;;;16.00;99.90;;;;;;5053576;28;20045;-75
2023/07/19 03:59:58;;;;;;;11.00;7.07;;;16.00;99.90;;;;;;5052101;28;20044;-75
2023/07/19 04:02:23;;;;;;;11.63;7.88;;;16.00;99.90;;;;;;5052137;28;20057;-75
2023/07/19 04:04:49;;;;;;;11.80;6.75;;;16.00;99.90;;;;;;5052352;28;20122;-74
2023/07/19 04:07:15;;;;;;;11.18;7.22;;;16.00;99.90;;;;;;5051761;28;20148;-75
2023/07/19 04:09:41;;;;;;;11.52;7.03;;;16.00;99.90;;;;;;5052774;28;20111;-74
2023/07/19 04:12:07;;;;;;;9.40;6.85;;;16.10;99.90;;;;;;5051388;28;20134;-75
2023/07/19 04:14:33;;;;;;;9.32;7.45;;;16.10;99.90;;;;;;5051340;28;20040;-75
2023/07/19 04:16:59;;;;;;;10.40;6.30;;;16.10;99.90;;;;;;5050700;28;20480;-73
2023/07/19 04:19:24;;;;;;;10.27;6.43;;;16.10;99.90;;;;;;5044032;28;20041;-73
2023/07/19 04:21:50;;;;;;;9.48;5.85;;;16.10;99.90;;;;;;5041690;28;20500;-74
2023/07/19 04:24:15;;;;;;;9.52;5.88;;;16.10;99.90;;;;;;5039294;28;20076;-75
2023/07/19 04:26:41;;;;;;;10.25;4.65;;;16.10;99.90;;;;;;5030748;28;20065;-78
2023/07/19 04:29:07;;;;;;;11.63;4.00;;;16.10;99.90;;;;;;5035107;28;20041;-74
2023/07/19 04:31:33;;;;;;;8.50;3.83;;;16.10;99.90;;;;;;5046757;28;20045;-74
2023/07/19 04:33:58;;;;;;;7.18;3.47;;;16.10;99.90;;;;;;5045221;28;20057;-75
2023/07/19 04:36:24;;;;;;;6.90;3.60;;;16.10;99.90;;;;;;5050713;28;20045;-75
2023/07/19 04:38:50;;;;;;;7.40;3.33;;;16.20;99.90;;;;;;5046619;28;20401;-76
2023/07/19 04:41:16;;;;;;;8.18;3.20;;;16.20;99.90;;;;;;5051666;28;20400;-76
2023/07/19 04:43:41;;;;;;;6.20;2.80;;;16.20;99.90;;;;;;5052421;28;20045;-76
2023/07/19 04:46:07;;;;;;;6.35;2.40;;;16.20;99.90;;;;;;5051767;28;20484;-76
2023/07/19 04:48:34;;;;;;;5.68;2.33;;;16.20;99.90;;;;;;5051681;28;20077;-77
2023/07/19 04:51:00;;;;;;;5.70;2.50;;;16.20;99.90;;;;;;5052776;28;20041;-76
2023/07/19 04:53:26;;;;;;;4.03;2.17;;;16.20;99.90;;;;;;5052433;28;20507;-75
2023/07/19 04:55:52;;;;;;;7.40;2.47;;;16.20;99.90;;;;;;5055426;28;20045;-75
2023/07/19 04:58:20;;;;;;;6.43;2.40;;;16.20;99.90;;;;;;5055163;28;20136;-75
2023/07/19 05:00:45;;;;;;;4.82;2.60;;;16.20;99.90;;;;;;5055354;28;20131;-76
2023/07/19 05:03:12;;;;;;;7.53;2.75;;;16.20;99.90;;;;;;5055895;28;20607;-77
2023/07/19 05:05:39;;;;;;;4.30;2.42;;;16.20;99.90;;;;;;5054898;28;20131;-76
2023/07/19 05:08:06;;;;;;;8.60;2.70;;;16.20;99.90;;;;;;5054880;28;20396;-76
2023/07/19 05:10:36;;;;;;;7.07;2.72;;;16.30;99.90;;;;;;5056778;28;20053;-75
2023/07/19 05:13:02;;;;;;;6.95;3.00;;;16.20;99.90;;;;;;5054280;28;20063;-75
2023/07/19 05:15:28;;;;;;;5.03;2.95;;;16.30;99.90;;;;;;5045871;28;20048;-76
2023/07/19 05:17:54;;;;;;;6.65;2.90;;;16.20;99.90;;;;;;5052720;28;20045;-75
2023/07/19 05:20:20;;;;;;;6.07;3.10;;;16.20;99.90;;;;;;5055908;28;20041;-76
2023/07/19 05:22:46;;;;;;;5.53;3.45;;;16.20;99.90;;;;;;5044104;28;20124;-76
2023/07/19 05:25:11;;;;;;;10.00;3.60;;;16.20;99.90;;;;;;5053100;28;20039;-76
2023/07/19 05:27:38;;;;;;;6.35;3.30;;;16.20;99.90;;;;;;5045225;28;20064;-75
2023/07/19 05:30:04;;;;;;;5.97;3.53;;;16.20;99.90;;;;;;5053638;28;20041;-74
2023/07/19 05:32:31;;;;;;;8.48;3.20;;;16.30;99.90;;;;;;5043821;28;20048;-75
2023/07/19 05:34:56;;;;;;;5.35;2.88;;;16.30;99.90;;;;;;5035022;28;20041;-76
2023/07/19 05:37:22;;;;;;;5.85;2.70;;;16.30;99.90;;;;;;5034054;28;20045;-77
2023/07/19 05:39:57;;;;;;;6.63;2.83;;;16.40;99.90;;;;;;5034518;28;20060;-77
2023/07/19 05:42:22;;;;;;;6.82;2.60;;;16.40;99.90;;;;;;5041765;28;20052;-77
2023/07/19 05:44:48;;;;;;;6.40;2.90;;;16.50;99.90;;;;;;5038319;28;20046;-75
2023/07/19 05:47:14;;;;;;;5.68;2.35;;;16.50;99.90;;;;;;5042637;28;20044;-75
2023/07/19 05:49:40;;;;;;;6.28;2.42;;;16.50;99.90;;;;;;5055828;28;20044;-76
2023/07/19 05:52:06;;;;;;;4.60;2.70;;;16.50;99.90;;;;;;5053567;28;20048;-75
2023/07/19 05:54:32;;;;;;;6.07;2.83;;;16.60;99.90;;;;;;5052491;28;20029;-75
2023/07/19 05:57:01;;;;;;;6.97;2.45;;;16.60;99.90;;;;;;5051463;28;20051;-73
2023/07/19 05:59:28;;;;;;;6.07;2.53;;;16.70;99.90;;;;;;5033272;28;20103;-73
2023/07/19 06:01:58;;;;;;;4.93;2.42;;;16.60;99.90;;;;;;5035495;28;20091;-74
2023/07/19 06:04:26;;;;;;;4.55;2.25;;;16.70;99.90;;;;;;5035629;28;20063;-74
2023/07/19 06:06:52;;;;;;;5.07;2.40;;;16.80;99.90;;;;;;5033847;28;20435;-72
2023/07/19 06:09:18;;;;;;;6.63;2.40;;;16.80;99.90;;;;;;5033480;28;20041;-73
2023/07/19 06:11:44;;;;;;;4.30;2.28;;;16.80;99.90;;;;;;5032371;28;20052;-72
2023/07/19 06:14:10;;;;;;;4.43;2.20;;;16.70;99.90;;;;;;5039945;28;20044;-72
2023/07/19 06:16:36;;;;;;;4.95;2.38;;;16.70;99.90;;;;;;5037209;28;20484;-72
2023/07/19 06:19:02;;;;;;;4.82;2.33;;;16.80;99.90;;;;;;5037355;28;20465;-72
2023/07/19 06:21:31;;;;;;;4.68;2.40;;;16.80;99.90;;;;;;5042054;28;20121;-72
2023/07/19 06:23:57;;;;;;;3.90;2.10;;;16.90;99.90;;;;;;5042252;28;20041;-72
2023/07/19 06:26:23;;;;;;;6.20;2.30;;;16.90;99.90;;;;;;5032775;28;20050;-73
2023/07/19 06:28:48;;;;;;;6.57;2.13;;;16.90;99.90;;;;;;5033030;28;20416;-73
2023/07/19 06:31:16;;;;;;;5.03;2.22;;;17.00;99.90;;;;;;5033312;28;20485;-73
2023/07/19 06:33:42;;;;;;;5.88;2.55;;;17.10;99.90;;;;;;5046841;28;20080;-73
2023/07/19 06:36:08;;;;;;;3.30;2.67;;;17.20;99.90;;;;;;5037800;28;20071;-73
2023/07/19 06:38:36;;;;;;;6.65;1.95;;;17.20;99.90;;;;;;5037362;28;20073;-73
2023/07/19 06:41:03;;;;;;;6.35;2.20;;;17.30;99.90;;;;;;5032445;28;20075;-72
2023/07/19 06:43:29;;;;;;;4.05;2.00;;;17.40;99.90;;;;;;5047839;28;20097;-72
2023/07/19 06:45:55;;;;;;;6.60;1.77;;;17.50;99.90;;;;;;5053301;28;20502;-73
2023/07/19 06:48:21;;;;;;;6.63;2.00;;;17.60;99.90;;;;;;5051837;28;20128;-74
2023/07/19 06:50:47;;;;;;;4.57;1.70;;;17.60;99.90;;;;;;5053373;28;20391;-73
2023/07/19 06:53:13;;;;;;;3.60;1.77;;;17.70;99.90;;;;;;5052829;28;20037;-74
2023/07/19 06:55:40;;;;;;;5.35;1.90;;;17.80;99.90;;;;;;5051399;28;20045;-74
2023/07/19 06:58:09;;;;;;;4.50;1.88;;;18.00;99.90;;;;;;5054649;28;20140;-74
2023/07/19 07:00:34;;;;;;;6.05;2.10;;;18.20;99.90;;;;;;5052209;28;20443;-74
2023/07/19 07:03:00;;;;;;;6.03;1.70;;;18.40;99.90;;;;;;5033304;28;20053;-74
2023/07/19 07:05:28;;;;;;;3.58;1.50;;;18.50;99.90;;;;;;5038677;28;20396;-74
2023/07/19 07:07:54;;;;;;;5.32;1.60;;;18.60;99.90;;;;;;5034252;28;20045;-73
2023/07/19 07:10:19;;;;;;;4.55;1.60;;;18.70;99.90;;;;;;5042819;28;20090;-72
2023/07/19 07:12:45;;;;;;;4.13;1.38;;;18.70;99.90;;;;;;5052328;28;20095;-73
2023/07/19 07:15:11;;;;;;;5.90;1.80;;;18.70;99.90;;;;;;5052884;28;20052;-73
2023/07/19 07:17:38;;;;;;;5.80;1.40;;;18.80;99.90;;;;;;5050836;28;20169;-74
2023/07/19 07:20:06;;;;;;;4.72;1.27;;;18.90;99.90;;;;;;5037259;28;20497;-78
2023/07/19 07:22:35;;;;;;;5.72;1.40;;;19.10;99.90;;;;;;5032387;28;20120;-77
2023/07/19 07:25:04;;;;;;;5.32;1.50;;;19.30;99.90;;;;;;5034763;28;20065;-80
2023/07/19 07:27:29;;;;;;;5.20;1.70;;;19.50;99.90;;;;;;5033366;28;20401;-77
2023/07/19 07:29:55;;;;;;;3.67;1.33;;;19.60;99.90;;;;;;5033251;28;20048;-76
2023/07/19 07:32:21;;;;;;;4.53;1.50;;;19.80;99.90;;;;;;5034862;28;20076;-76
2023/07/19 07:34:47;;;;;;;5.85;1.65;;;20.20;99.90;;;;;;5032116;28;20127;-77
2023/07/19 07:37:12;;;;;;;4.90;1.40;;;20.40;99.90;;;;;;5038043;28;20087;-77
2023/07/19 07:39:38;;;;;;;6.28;1.38;;;20.40;99.90;;;;;;5033403;28;20068;-78
2023/07/19 07:42:05;;;;;;;4.15;1.30;;;20.70;99.90;;;;;;5033776;28;20124;-77
2023/07/19 07:44:37;;;;;;;5.20;1.63;;;21.20;99.90;;;;;;5032090;28;20185;-78
2023/07/19 07:47:03;;;;;;;4.68;1.60;;;21.40;99.90;;;;;;5033060;28;20041;-78
2023/07/19 07:49:29;;;;;;;4.93;1.50;;;21.60;99.90;;;;;;5031629;28;20051;-76
2023/07/19 07:51:55;;;;;;;5.65;1.30;;;22.10;99.90;;;;;;5030399;28;20130;-77
2023/07/19 07:54:21;;;;;;;7.32;1.60;;;22.60;99.90;;;;;;5031694;28;20484;-75
2023/07/19 07:56:46;;;;;;;3.78;1.20;;;22.40;99.90;;;;;;5032881;28;20091;-76
2023/07/19 07:59:12;;;;;;;2.60;1.10;;;22.10;99.90;;;;;;5031960;28;20041;-76
2023/07/19 08:01:38;;;;;;;3.08;1.17;;;21.90;99.90;;;;;;5033271;28;20171;-77
2023/07/19 08:04:06;;;;;;;4.38;1.30;;;21.50;99.90;;;;;;5045443;28;20041;-77
2023/07/19 08:06:32;;;;;;;4.03;1.30;;;21.30;99.90;;;;;;5043398;28;20052;-76
2023/07/19 08:08:58;;;;;;;4.85;1.27;;;21.10;99.90;;;;;;5048494;28;20037;-80
2023/07/19 08:11:25;;;;;;;3.50;1.50;;;21.10;99.90;;;;;;5048399;28;20064;-78
2023/07/19 08:13:50;;;;;;;2.42;1.27;;;21.40;99.90;;;;;;5040907;28;20132;-78
2023/07/19 08:16:17;;;;;;;4.45;1.20;;;21.40;99.90;;;;;;5032763;28;20125;-78
2023/07/19 08:18:43;;;;;;;3.83;1.17;;;21.40;99.90;;;;;;5034419;28;20048;-78
2023/07/19 08:21:09;;;;;;;4.63;1.42;;;21.40;99.90;;;;;;5033988;28;20125;-78
2023/07/19 08:23:35;;;;;;;5.13;1.50;;;21.50;99.90;;;;;;5031671;28;20045;-81
2023/07/19 08:26:00;;;;;;;2.92;1.20;;;21.80;99.90;;;;;;5032893;28;20570;-78
2023/07/19 08:28:26;;;;;;;4.45;1.40;;;22.10;99.90;;;;;;5034070;28;20445;-80
2023/07/19 08:30:58;;;;;;;2.70;1.33;;;23.00;99.90;;;;;;5035853;28;20049;-81
2023/07/19 08:33:24;;;;;;;4.53;1.30;;;23.60;99.90;;;;;;5048284;28;20401;-81
2023/07/19 08:35:51;;;;;;;4.50;1.25;;;23.70;99.90;;;;;;5054137;28;20050;-80
2023/07/19 08:38:17;;;;;;;4.65;1.60;;;23.40;99.90;;;;;;5051140;28;20045;-80
2023/07/19 08:40:54;;;;;;;3.67;1.50;;;23.20;99.90;;;;;;5052946;28;20056;-76
2023/07/19 08:43:20;;;;;;;3.55;1.30;;;23.30;99.90;;;;;;5053670;28;20044;-76
2023/07/19 08:45:46;;;;;;;4.13;1.40;;;24.20;99.90;;;;;;5048391;28;20493;-78
2023/07/19 08:48:12;;;;;;;3.88;1.15;;;25.10;99.70;;;;;;5041708;28;20056;-79
2023/07/19 08:50:39;;;;;;;2.47;1.10;;;25.80;98.40;;;;;;5046652;28;20037;-78
2023/07/19 08:53:05;;;;;;;3.60;1.58;;;25.50;97.60;;;;;;5046568;28;20128;-80
2023/07/19 08:55:33;;;;;;;4.47;1.52;;;24.90;97.30;;;;;;5038185;28;20171;-78
2023/07/19 08:57:59;;;;;;;3.35;1.40;;;24.30;98.00;;;;;;5040482;28;20095;-77
2023/07/19 09:00:28;;;;;;;5.18;1.67;;;24.40;98.50;;;;;;5053850;28;20134;-80
2023/07/19 09:02:57;;;;;;;3.30;1.40;;;25.20;98.70;;;;;;5055190;28;20048;-83
2023/07/19 09:05:28;;;;;;;3.70;1.20;;;25.60;97.40;;;;;;5054718;28;20045;-82
2023/07/19 09:07:54;;;;;;;3.47;1.30;;;25.40;96.60;;;;;;5048231;28;20049;-78
2023/07/19 09:10:19;;;;;;;3.38;1.48;;;24.60;97.30;;;;;;5047955;28;20119;-79
2023/07/19 09:12:46;;;;;;;3.63;1.35;;;24.20;97.40;;;;;;5043122;28;20092;-85
2023/07/19 09:15:13;;;;;;;2.35;1.00;;;24.20;98.60;;;;;;5043331;28;20041;-79
2023/07/19 09:17:42;;;;;;;3.30;1.25;;;23.80;98.30;;;;;;5052270;28;20045;-78
2023/07/19 09:20:09;;;;;;;3.78;1.30;;;23.70;98.70;;;;;;5055663;28;20044;-78
2023/07/19 09:22:36;;;;;;;4.22;1.30;;;24.10;99.00;;;;;;5053594;28;20121;-77
2023/07/19 09:25:03;;;;;;;4.20;1.10;;;24.70;98.70;;;;;;5053616;28;20057;-78
2023/07/19 09:27:31;;;;;;;3.38;1.20;;;24.90;97.90;;;;;;5053730;28;20472;-82
2023/07/19 09:29:57;;;;;;;3.47;1.10;;;24.20;98.10;;;;;;5055347;28;20087;-79
2023/07/19 09:32:23;;;;;;;3.40;1.55;;;23.60;98.10;;;;;;5054952;28;20045;-85
2023/07/19 09:34:52;;;;;;;3.50;1.38;;;23.30;98.50;;;;;;5053373;28;20124;-81
2023/07/19 09:37:20;;;;;;;5.45;1.25;;;23.30;99.30;;;;;;5051698;28;20037;-81
2023/07/19 09:39:46;;;;;;;3.53;1.10;;;23.30;99.00;;;;;;5052881;28;20652;-81
2023/07/19 09:42:13;;;;;;;3.00;1.05;;;23.20;99.60;;;;;;5051800;28;20495;-80
2023/07/19 09:44:40;;;;;;;3.47;1.02;;;23.00;99.30;;;;;;5051113;28;20044;-77
2023/07/19 09:47:10;;;;;;;4.25;1.38;;;22.40;99.90;;;;;;5052113;28;20049;-82
2023/07/19 09:49:36;;;;;;;3.20;1.30;;;22.10;99.90;;;;;;5051929;28;20037;-77
2023/07/19 09:52:05;;;;;;;2.75;1.00;;;22.70;99.90;;;;;;5048456;28;20370;-79
2023/07/19 09:54:32;;;;;;;2.75;1.30;;;23.60;99.90;;;;;;5054587;28;20056;-74
2023/07/19 09:56:58;;;;;;;4.05;1.20;;;24.00;99.40;;;;;;5055023;28;20045;-76
2023/07/19 09:59:51;;;;;;;3.80;1.20;;;24.80;98.30;;;;;;5053819;28;20127;-76
2023/07/19 10:02:18;;;;;;;2.95;1.20;;;25.60;97.60;;;;;;5049210;28;20053;-77
2023/07/19 10:04:48;;;;;;;2.85;1.10;;;26.40;97.00;;;;;;5053698;28;20051;-77
2023/07/19 10:07:19;;;;;;;3.13;1.08;;;26.90;96.20;;;;;;5052716;28;20052;-78
2023/07/19 10:09:50;;;;;;;2.47;1.20;;;27.00;94.40;;;;;;5052369;28;20048;-78
2023/07/19 10:12:16;;;;;;;2.47;1.00;;;26.30;95.10;;;;;;5056342;28;20049;-78
2023/07/19 10:15:02;;;;;;;2.83;1.00;;;26.30;95.80;;;;;;5053184;28;20713;-77
2023/07/19 10:17:31;;;;;;;1.77;1.00;;;26.50;95.50;;;;;;5053880;28;20077;-78
2023/07/19 10:20:13;;;;;;;2.53;1.17;;;26.50;95.20;;;;;;5050286;28;20048;-78
2023/07/19 10:22:56;;;;;;;4.13;1.33;;;26.60;94.70;;;;;;5052839;28;20041;-77
2023/07/19 10:25:27;;;;;;;5.00;1.25;;;26.50;94.80;;;;;;5052435;28;20091;-78
2023/07/19 10:28:10;;;;;;;2.45;1.17;;;27.10;94.20;;;;;;5054184;28;20045;-78
2023/07/19 10:30:55;;;;;;;4.43;1.10;;;27.50;93.40;;;;;;5053336;28;20048;-77
2023/07/19 10:33:29;;;;;;;4.45;1.27;;;27.30;92.50;;;;;;5054120;28;20080;-77
2023/07/19 10:36:06;;;;;;;2.53;1.00;;;26.70;92.80;;;;;;5051240;28;20044;-77
2023/07/19 10:38:32;;;;;;;3.20;1.17;;;26.50;93.50;;;;;;5052965;28;20049;-77
2023/07/19 10:41:03;;;;;;;2.97;1.15;;;26.90;94.60;;;;;;5053088;28;20047;-76
2023/07/19 10:43:31;;;;;;;2.20;1.10;;;27.10;93.60;;;;;;5052287;28;20049;-75
2023/07/19 10:46:03;;;;;;;3.17;0.80;;;26.50;93.70;;;;;;5052044;28;20066;-77
2023/07/19 10:48:34;;;;;;;3.60;1.00;;;26.60;93.30;;;;;;5054735;28;20098;-78
2023/07/19 10:51:01;;;;;;;2.22;1.00;;;27.10;93.90;;;;;;5053133;28;20120;-78
2023/07/19 10:53:27;;;;;;;3.13;0.90;;;27.20;93.90;;;;;;5052640;28;20432;-78
2023/07/19 10:55:54;;;;;;;4.95;1.10;;;27.40;92.40;;;;;;5054442;28;20484;-80
2023/07/19 10:58:29;;;;;;;3.58;1.10;;;27.40;92.80;;;;;;5053068;28;20051;-80
2023/07/19 11:00:56;;;;;;;2.78;1.17;;;27.00;92.20;;;;;;5051968;28;20531;-77
2023/07/19 11:03:26;;;;;;;3.33;1.10;;;26.50;93.00;;;;;;5053609;28;20374;-76
2023/07/19 11:05:53;;;;;;;3.25;1.20;;;26.60;92.80;;;;;;5053495;28;20122;-78
2023/07/19 11:08:24;;;;;;;3.95;1.23;;;26.40;93.20;;;;;;5053262;28;20517;-78
2023/07/19 11:10:51;;;;;;;3.13;1.00;;;26.70;93.00;;;;;;5052640;28;20052;-80
2023/07/19 11:13:18;;;;;;;2.38;0.82;;;26.80;92.40;;;;;;5053570;28;20443;-78
2023/07/19 11:15:52;;;;;;;2.60;0.98;;;26.70;91.70;;;;;;5052569;28;20106;-78
2023/07/19 11:18:40;;;;;;;2.72;1.00;;;26.90;92.80;;;;;;5054739;28;20049;-78
2023/07/19 11:21:10;;;;;;;3.17;1.20;;;26.80;92.30;;;;;;5051732;28;20077;-77
2023/07/19 11:23:41;;;;;;;2.60;1.00;;;26.90;92.10;;;;;;5054068;28;20049;-78
2023/07/19 11:26:11;;;;;;;2.28;0.82;;;27.50;91.90;;;;;;5054270;28;20044;-78
2023/07/19 11:28:45;;;;;;;3.72;0.88;;;27.50;93.60;;;;;;5053453;28;20103;-78
2023/07/19 11:31:26;;;;;;;3.30;0.93;;;27.60;92.00;;;;;;5053604;28;20530;-78
2023/07/19 11:34:03;;;;;;;3.20;1.00;;;27.80;91.80;;;;;;5052752;28;20067;-77
2023/07/19 11:36:29;;;;;;;2.97;1.00;;;27.40;91.50;;;;;;5053709;28;20055;-78
2023/07/19 11:38:56;;;;;;;1.80;0.80;;;27.40;92.20;;;;;;5054080;28;20041;-80
2023/07/19 11:41:22;;;;;;;2.50;1.00;;;27.60;91.60;;;;;;5053364;28;20053;-80
2023/07/19 11:43:52;;;;;;;1.85;0.80;;;28.30;91.20;;;;;;5053857;28;20045;-80
2023/07/19 11:46:21;;;;;;;2.20;1.20;;;28.20;90.40;;;;;;5054249;28;20081;-80
2023/07/19 11:48:47;;;;;;;2.75;0.93;;;27.40;91.60;;;;;;5053241;28;20041;-80
2023/07/19 11:51:14;;;;;;;3.40;1.02;;;26.80;92.40;;;;;;5052779;28;20544;-80
2023/07/19 11:53:43;;;;;;;2.40;0.95;;;26.90;93.00;;;;;;5053671;28;20041;-80
2023/07/19 11:56:08;;;;;;;2.17;0.85;;;27.00;91.40;;;;;;5053522;28;20135;-80
2023/07/19 11:58:34;;;;;;;3.05;1.10;;;27.10;91.30;;;;;;5043954;28;20124;-78
2023/07/19 12:01:01;;;;;;;4.30;0.90;;;27.50;91.00;;;;;;5041466;28;20048;-79
2023/07/19 12:03:27;;;;;;;4.63;1.00;;;27.60;91.00;;;;;;5049168;28;20048;-80
2023/07/19 12:05:52;;;;;;;3.88;1.00;;;27.30;91.00;;;;;;5043906;28;20084;-79
2023/07/19 12:08:18;;;;;;;3.28;1.13;;;27.30;90.90;;;;;;5050278;28;20077;-79
2023/07/19 12:10:44;;;;;;;1.92;0.98;;;26.80;91.00;;;;;;5051330;28;20119;-79
2023/07/19 12:13:10;;;;;;;2.90;0.90;;;26.90;92.00;;;;;;5048157;28;20116;-79
2023/07/19 12:15:36;;;;;;;1.92;0.80;;;26.90;91.20;;;;;;5047446;28;20040;-80
2023/07/19 12:18:02;;;;;;;2.22;0.80;;;26.60;91.90;;;;;;5047081;28;20117;-79
2023/07/19 12:20:27;;;;;;;3.58;0.90;;;26.70;92.20;;;;;;5044234;28;20117;-80
2023/07/19 12:22:53;;;;;;;2.03;0.70;;;26.50;92.00;;;;;;5043400;28;20049;-79
2023/07/19 12:25:19;;;;;;;3.15;1.17;;;25.80;92.60;;;;;;5047001;28;20045;-79
2023/07/19 12:27:46;;;;;;;3.60;1.00;;;25.50;93.40;;;;;;5034207;28;20526;-79
2023/07/19 12:30:12;;;;;;;2.42;0.90;;;25.10;94.00;;;;;;5044524;28;20049;-79
2023/07/19 12:32:38;;;;;;;1.92;0.93;;;24.80;93.50;;;;;;5041454;28;20405;-79
2023/07/19 12:35:05;;;;;;;3.17;1.42;;;24.70;94.00;;;;;;5050861;28;20047;-79
2023/07/19 12:37:33;;;;;;;1.55;0.82;;;25.00;93.80;;;;;;5048892;28;20595;-79
2023/07/19 12:39:59;;;;;;;1.95;0.75;;;25.30;93.60;;;;;;5045260;28;20521;-79
2023/07/19 12:42:26;;;;;;;2.60;1.00;;;25.20;93.10;;;;;;5045323;28;20049;-78
2023/07/19 12:44:52;;;;;;;3.20;1.25;;;25.20;92.80;;;;;;5051191;28;20080;-77